Time;durP1;ratioP1;P1;durP2;ratioP2;P2;SDS_P1;SDS_P2;PMS_P1;PMS_P2;Temp;Humidity;BMP_temperature;BMP_pressure;BME280_temperature;BME280_humidity;BME280_pressure;Samples;Min_cycle;Max_cycle;Signal;HPM_P1;HPM_P2
2023/05/17 00:02:11;;;;;;;4.75;2.55;;;16.10;79.30;;;;;;7395611;19;19978;-73
2023/05/17 00:04:37;;;;;;;4.50;2.40;;;16.10;73.90;;;;;;7398037;19;19964;-73
2023/05/17 00:07:03;;;;;;;5.35;2.58;;;16.10;68.60;;;;;;7395792;19;19919;-72
2023/05/17 00:09:29;;;;;;;5.15;2.00;;;16.10;66.40;;;;;;7398090;19;20260;-73
2023/05/17 00:11:55;;;;;;;4.82;2.10;;;16.00;64.90;;;;;;7399276;19;19926;-74
2023/05/17 00:14:20;;;;;;;5.13;1.70;;;16.00;61.00;;;;;;7396667;19;19920;-73
2023/05/17 00:16:46;;;;;;;4.47;2.45;;;16.00;57.30;;;;;;7400866;19;19923;-72
2023/05/17 00:19:12;;;;;;;4.20;1.60;;;15.90;54.30;;;;;;7398802;19;19918;-73
2023/05/17 00:21:38;;;;;;;5.13;2.25;;;15.90;55.20;;;;;;7397531;19;19914;-73
2023/05/17 00:24:04;;;;;;;4.57;1.63;;;15.90;55.80;;;;;;7393152;19;19915;-73
2023/05/17 00:26:30;;;;;;;3.95;1.90;;;15.90;52.40;;;;;;7393821;19;19919;-73
2023/05/17 00:28:55;;;;;;;4.20;2.00;;;15.80;52.80;;;;;;7399471;19;19914;-73
2023/05/17 00:31:21;;;;;;;4.55;1.70;;;15.90;51.20;;;;;;7398973;19;19919;-72
2023/05/17 00:33:47;;;;;;;3.92;1.92;;;15.80;52.40;;;;;;7399029;19;19943;-72
2023/05/17 00:36:12;;;;;;;4.45;1.67;;;15.70;53.00;;;;;;7395526;19;19922;-72
2023/05/17 00:38:38;;;;;;;4.30;2.20;;;15.70;51.30;;;;;;7405278;19;19946;-72
2023/05/17 00:41:04;;;;;;;5.35;2.72;;;15.70;51.70;;;;;;7402142;19;19929;-73
2023/05/17 00:43:30;;;;;;;5.70;2.30;;;15.50;53.20;;;;;;7406392;19;19925;-73
2023/05/17 00:45:56;;;;;;;4.85;2.17;;;15.50;53.90;;;;;;7404213;19;19915;-74
2023/05/17 00:48:24;;;;;;;3.83;1.67;;;15.50;54.40;;;;;;7402521;19;20295;-73
2023/05/17 00:50:52;;;;;;;5.20;1.70;;;15.40;54.30;;;;;;7401847;19;20303;-72
2023/05/17 00:53:18;;;;;;;4.82;2.03;;;15.30;54.80;;;;;;7403771;19;19915;-72
2023/05/17 00:55:44;;;;;;;5.63;2.70;;;15.30;54.10;;;;;;7353698;19;19951;-71
2023/05/17 00:58:11;;;;;;;6.85;2.00;;;15.30;53.50;;;;;;7402686;19;20259;-71
2023/05/17 01:00:37;;;;;;;4.82;1.98;;;15.40;52.80;;;;;;7404986;19;19917;-71
2023/05/17 01:03:03;;;;;;;7.53;1.73;;;15.50;52.10;;;;;;7381802;19;19915;-72
2023/05/17 01:05:29;;;;;;;5.13;1.67;;;15.50;50.90;;;;;;7403174;19;19919;-72
2023/05/17 01:07:55;;;;;;;4.88;2.25;;;15.50;50.80;;;;;;7403431;19;19945;-72
2023/05/17 01:10:34;;;;;;;6.15;2.55;;;15.40;50.90;;;;;;7402771;19;20399;-71
2023/05/17 01:13:08;;;;;;;5.18;2.45;;;15.40;51.40;;;;;;7402720;19;19938;-72
2023/05/17 01:15:41;;;;;;;5.57;2.10;;;15.40;51.50;;;;;;7402925;19;19922;-72
2023/05/17 01:18:25;;;;;;;4.85;1.90;;;15.40;52.10;;;;;;7403178;19;19922;-72
2023/05/17 01:20:54;;;;;;;7.60;2.17;;;15.30;52.60;;;;;;7405463;19;20015;-72
2023/05/17 01:23:34;;;;;;;5.32;2.35;;;15.30;51.90;;;;;;7401882;19;19930;-72
2023/05/17 01:26:14;;;;;;;5.85;2.30;;;15.30;51.00;;;;;;7403907;19;19944;-72
2023/05/17 01:28:43;;;;;;;4.93;2.15;;;15.30;50.40;;;;;;7400096;19;20251;-72
2023/05/17 01:31:10;;;;;;;5.05;2.40;;;15.30;51.10;;;;;;7402484;19;19929;-72
2023/05/17 01:33:37;;;;;;;4.95;2.33;;;15.20;52.20;;;;;;7405071;19;19922;-71
2023/05/17 01:36:03;;;;;;;4.65;2.42;;;15.20;53.00;;;;;;7403208;19;19947;-72
2023/05/17 01:38:29;;;;;;;5.13;1.98;;;15.10;53.30;;;;;;7402126;19;19922;-71
2023/05/17 01:41:22;;;;;;;4.30;1.40;;;15.20;49.10;;;;;;7399637;19;19915;-72
2023/05/17 01:44:04;;;;;;;5.10;1.60;;;15.20;48.90;;;;;;7371843;19;19922;-71
2023/05/17 01:46:39;;;;;;;4.63;2.00;;;15.10;47.10;;;;;;7369547;19;19985;-72
2023/05/17 01:49:08;;;;;;;5.20;1.40;;;15.20;44.60;;;;;;7400963;19;19915;-72
2023/05/17 01:51:45;;;;;;;4.95;1.92;;;15.20;45.40;;;;;;7402788;19;19954;-71
2023/05/17 01:54:12;;;;;;;4.00;1.58;;;15.20;46.00;;;;;;7402411;19;20227;-72
2023/05/17 01:56:43;;;;;;;3.92;1.80;;;15.10;46.10;;;;;;7403101;19;19939;-72
2023/05/17 01:59:14;;;;;;;5.30;1.75;;;15.10;45.50;;;;;;7402269;19;19922;-72
2023/05/17 02:01:41;;;;;;;5.40;2.33;;;15.10;45.20;;;;;;7402319;19;19922;-72
2023/05/17 02:04:10;;;;;;;;;;;15.10;44.40;;;;;;7403781;19;19914;-72
2023/05/17 02:06:35;;;;;;;4.57;1.60;;;15.20;42.30;;;;;;7401535;19;19929;-73
2023/05/17 02:09:01;;;;;;;3.25;1.25;;;15.30;41.50;;;;;;7401482;19;19922;-72
2023/05/17 02:11:27;;;;;;;4.70;1.58;;;15.20;42.10;;;;;;7402999;19;19918;-72
2023/05/17 02:13:53;;;;;;;4.00;1.63;;;15.20;41.90;;;;;;7401694;19;19942;-72
2023/05/17 02:16:19;;;;;;;3.80;1.67;;;15.10;42.10;;;;;;7399440;19;19915;-72
2023/05/17 02:18:45;;;;;;;5.78;1.63;;;15.10;41.40;;;;;;7400812;19;20629;-73
2023/05/17 02:21:12;;;;;;;4.55;1.70;;;15.10;41.10;;;;;;7401301;19;19918;-72
2023/05/17 02:23:37;;;;;;;4.90;1.85;;;15.10;40.60;;;;;;7402334;19;19942;-72
2023/05/17 02:26:03;;;;;;;4.88;1.85;;;15.10;41.30;;;;;;7398604;19;19926;-72
2023/05/17 02:28:29;;;;;;;4.63;1.95;;;15.00;41.20;;;;;;7401385;19;19918;-72
2023/05/17 02:30:55;;;;;;;4.57;1.42;;;15.00;39.90;;;;;;7401833;19;19919;-71
2023/05/17 02:33:21;;;;;;;3.88;1.50;;;15.10;39.80;;;;;;7401541;19;19915;-72
2023/05/17 02:35:50;;;;;;;4.78;1.20;;;15.10;39.40;;;;;;7400721;19;19918;-72
2023/05/17 02:38:16;;;;;;;3.13;1.33;;;15.10;38.80;;;;;;7399151;19;20536;-72
2023/05/17 02:40:42;;;;;;;5.10;1.63;;;15.10;39.00;;;;;;7401657;19;19939;-72
2023/05/17 02:43:07;;;;;;;4.15;1.55;;;15.10;38.60;;;;;;7399004;19;20346;-71
2023/05/17 02:45:33;;;;;;;3.60;1.52;;;15.10;37.50;;;;;;7401036;19;20326;-71
2023/05/17 02:47:59;;;;;;;3.65;1.25;;;15.10;38.00;;;;;;7401670;19;20240;-73
2023/05/17 02:50:25;;;;;;;6.97;1.50;;;15.10;37.80;;;;;;7399211;19;19910;-71
2023/05/17 02:52:50;;;;;;;3.92;1.67;;;15.10;38.60;;;;;;7401338;19;19922;-72
2023/05/17 02:55:16;;;;;;;3.90;1.20;;;15.00;38.40;;;;;;7398345;19;19922;-72
2023/05/17 02:57:42;;;;;;;4.47;1.88;;;15.00;38.80;;;;;;7400458;19;19978;-71
2023/05/17 03:00:08;;;;;;;3.47;1.23;;;15.00;39.70;;;;;;7397104;19;19915;-72
2023/05/17 03:02:34;;;;;;;4.43;1.70;;;15.00;40.50;;;;;;7401480;19;19978;-72
2023/05/17 03:05:00;;;;;;;5.65;2.25;;;14.90;41.30;;;;;;7399120;19;19918;-72
2023/05/17 03:07:25;;;;;;;3.95;1.80;;;14.80;41.90;;;;;;7400255;19;19919;-71
2023/05/17 03:09:51;;;;;;;4.80;1.50;;;14.80;42.30;;;;;;7401288;19;20451;-71
2023/05/17 03:12:17;;;;;;;4.47;1.60;;;14.70;42.80;;;;;;7368214;19;19919;-73
2023/05/17 03:14:43;;;;;;;6.95;1.63;;;14.70;43.90;;;;;;7401277;19;20241;-71
2023/05/17 03:17:08;;;;;;;4.93;2.17;;;14.70;44.20;;;;;;7400609;19;20339;-72
2023/05/17 03:19:34;;;;;;;3.75;1.83;;;14.70;44.30;;;;;;7399872;19;19923;-72
2023/05/17 03:22:00;;;;;;;3.28;1.20;;;14.70;44.40;;;;;;7400576;19;20253;-72
2023/05/17 03:24:26;;;;;;;4.90;1.50;;;14.70;44.00;;;;;;7399797;19;19918;-72
2023/05/17 03:26:51;;;;;;;3.58;1.30;;;14.60;44.00;;;;;;7400345;19;19922;-71
2023/05/17 03:29:17;;;;;;;6.75;1.83;;;14.60;45.20;;;;;;7398569;19;20262;-72
2023/05/17 03:31:43;;;;;;;4.75;2.28;;;14.40;46.00;;;;;;7401375;19;19962;-71
2023/05/17 03:34:09;;;;;;;5.53;2.15;;;14.40;46.90;;;;;;7376969;19;19923;-71
2023/05/17 03:36:34;;;;;;;4.65;1.95;;;14.30;46.90;;;;;;7399749;19;19986;-73
2023/05/17 03:39:00;;;;;;;4.63;2.35;;;14.30;46.80;;;;;;7399159;19;19933;-73
2023/05/17 03:41:26;;;;;;;6.93;2.40;;;14.30;48.10;;;;;;7397109;19;19936;-72
2023/05/17 03:43:52;;;;;;;5.85;2.25;;;14.30;48.60;;;;;;7401228;19;19915;-72
2023/05/17 03:46:17;;;;;;;4.03;1.85;;;14.20;48.20;;;;;;7398442;19;19922;-72
2023/05/17 03:48:43;;;;;;;5.25;2.08;;;14.30;47.10;;;;;;7399380;19;19922;-72
2023/05/17 03:51:09;;;;;;;3.88;1.95;;;14.20;46.80;;;;;;7376088;19;19978;-72
2023/05/17 03:53:39;;;;;;;4.82;1.75;;;14.30;45.70;;;;;;7398882;19;19974;-72
2023/05/17 03:56:05;;;;;;;5.15;1.90;;;14.30;45.00;;;;;;7398557;19;19923;-73
2023/05/17 03:58:31;;;;;;;4.40;1.88;;;14.50;44.40;;;;;;7398897;19;19954;-72
2023/05/17 04:00:58;;;;;;;5.57;2.08;;;14.40;45.40;;;;;;7398798;19;19922;-71
2023/05/17 04:03:24;;;;;;;5.13;1.65;;;14.30;45.90;;;;;;7398018;19;19927;-73
2023/05/17 04:05:49;;;;;;;4.45;1.95;;;14.20;47.30;;;;;;7399502;19;19914;-72
2023/05/17 04:08:15;;;;;;;5.93;2.22;;;14.00;48.30;;;;;;7398141;19;19926;-72
2023/05/17 04:10:41;;;;;;;5.78;2.28;;;13.90;49.70;;;;;;7400172;19;19995;-73
2023/05/17 04:13:10;;;;;;;5.65;2.38;;;13.80;50.40;;;;;;7401948;19;19919;-72
2023/05/17 04:15:36;;;;;;;4.63;2.05;;;13.90;50.00;;;;;;7406685;19;19923;-71
2023/05/17 04:18:02;;;;;;;4.20;1.58;;;13.80;50.40;;;;;;7404699;19;20270;-71
2023/05/17 04:20:27;;;;;;;4.18;1.98;;;13.80;49.20;;;;;;7404054;19;19918;-71
2023/05/17 04:22:53;;;;;;;3.78;1.23;;;14.10;48.20;;;;;;7404111;19;20324;-73
2023/05/17 04:25:19;;;;;;;4.85;1.60;;;14.20;44.40;;;;;;7404045;19;20609;-72
2023/05/17 04:27:46;;;;;;;4.97;1.60;;;14.30;44.70;;;;;;7406467;19;20270;-72
2023/05/17 04:30:12;;;;;;;5.43;1.70;;;14.30;44.60;;;;;;7403283;19;19922;-73
2023/05/17 04:32:39;;;;;;;3.90;1.75;;;14.40;44.90;;;;;;7405181;19;19942;-73
2023/05/17 04:35:05;;;;;;;;;;;14.40;43.30;;;;;;7400656;19;19938;-73
2023/05/17 04:37:31;;;;;;;8.05;1.92;;;14.40;43.60;;;;;;7401062;19;19914;-72
2023/05/17 04:39:57;;;;;;;4.78;1.73;;;14.60;44.00;;;;;;7403692;19;20346;-72
2023/05/17 04:42:23;;;;;;;5.00;2.00;;;14.60;44.80;;;;;;7402950;19;19911;-72
2023/05/17 04:44:49;;;;;;;6.43;1.83;;;14.60;45.40;;;;;;7400012;19;20232;-73
2023/05/17 04:47:15;;;;;;;4.78;1.90;;;14.60;45.70;;;;;;7402771;19;19936;-73
2023/05/17 04:49:42;;;;;;;6.93;2.40;;;14.50;45.30;;;;;;7404240;19;19918;-73
2023/05/17 04:52:08;;;;;;;4.80;2.05;;;14.50;45.00;;;;;;7403471;19;19910;-72
2023/05/17 04:54:33;;;;;;;6.35;2.30;;;14.50;45.20;;;;;;7401286;19;19907;-71
2023/05/17 04:56:59;;;;;;;4.78;2.05;;;14.40;45.80;;;;;;7402026;19;19955;-72
2023/05/17 04:59:25;;;;;;;5.15;1.67;;;14.40;45.60;;;;;;7401953;19;20331;-72
2023/05/17 05:01:51;;;;;;;6.22;2.00;;;14.40;45.70;;;;;;7404785;19;19922;-71
2023/05/17 05:04:16;;;;;;;4.60;1.80;;;14.40;46.30;;;;;;7402398;19;19982;-72
2023/05/17 05:06:42;;;;;;;5.30;2.22;;;14.40;46.90;;;;;;7403492;19;19915;-72
2023/05/17 05:09:08;;;;;;;3.55;1.83;;;14.40;46.90;;;;;;7398613;19;19933;-73
2023/05/17 05:11:35;;;;;;;4.28;1.30;;;14.40;46.90;;;;;;7404638;19;20260;-72
2023/05/17 05:14:00;;;;;;;6.13;1.90;;;14.30;46.50;;;;;;7400319;19;19949;-72
2023/05/17 05:16:26;;;;;;;4.50;1.42;;;14.30;46.80;;;;;;7401122;19;20271;-72
2023/05/17 05:18:53;;;;;;;4.28;1.75;;;14.30;47.20;;;;;;7374827;19;19934;-73
2023/05/17 05:21:19;;;;;;;4.75;1.63;;;14.30;47.00;;;;;;7401496;19;20002;-72
2023/05/17 05:23:45;;;;;;;3.83;1.52;;;14.30;46.70;;;;;;7380372;19;19911;-72
2023/05/17 05:26:10;;;;;;;5.43;2.03;;;14.20;46.80;;;;;;7400752;19;19911;-73
2023/05/17 05:28:36;;;;;;;4.40;1.98;;;14.30;46.60;;;;;;7402771;19;19930;-73
2023/05/17 05:31:02;;;;;;;6.85;1.90;;;14.30;46.60;;;;;;7403528;19;19922;-72
2023/05/17 05:33:28;;;;;;;5.47;1.52;;;14.40;46.50;;;;;;7403299;19;20245;-72
2023/05/17 05:35:54;;;;;;;4.30;1.98;;;14.40;46.70;;;;;;7404111;19;19918;-72
2023/05/17 05:38:20;;;;;;;4.47;1.50;;;14.50;46.10;;;;;;7401056;19;20339;-71
2023/05/17 05:40:47;;;;;;;5.78;1.88;;;14.50;44.80;;;;;;7403344;19;20022;-71
2023/05/17 05:43:13;;;;;;;3.53;1.60;;;14.50;44.80;;;;;;7401350;19;19974;-72
2023/05/17 05:45:46;;;;;;;5.97;1.58;;;14.50;44.80;;;;;;7401809;19;19960;-71
2023/05/17 05:48:12;;;;;;;4.30;1.48;;;14.50;44.40;;;;;;7403034;19;19922;-70
2023/05/17 05:50:41;;;;;;;5.20;1.42;;;14.50;45.10;;;;;;7405175;19;19915;-71
2023/05/17 05:53:08;;;;;;;5.28;1.73;;;14.50;45.10;;;;;;7401777;19;19915;-71
2023/05/17 05:55:35;;;;;;;6.05;1.30;;;14.50;44.90;;;;;;7403016;19;20257;-71
2023/05/17 05:58:00;;;;;;;;;;;14.50;45.10;;;;;;7407077;19;19915;-72
2023/05/17 06:00:26;;;;;;;4.20;1.40;;;14.50;44.50;;;;;;7402850;19;20372;-72
2023/05/17 06:02:52;;;;;;;4.13;1.58;;;14.60;43.90;;;;;;7402094;19;19946;-72
2023/05/17 06:05:18;;;;;;;3.33;1.10;;;14.70;43.80;;;;;;7396873;19;20280;-71
2023/05/17 06:07:44;;;;;;;4.22;1.20;;;14.80;43.20;;;;;;7401836;19;20271;-72
2023/05/17 06:10:10;;;;;;;3.42;1.20;;;14.90;43.10;;;;;;7403126;19;19919;-72
2023/05/17 06:12:36;;;;;;;3.70;1.65;;;15.00;42.90;;;;;;7404514;19;19923;-73
2023/05/17 06:15:02;;;;;;;3.40;1.55;;;15.00;42.50;;;;;;7403373;19;19922;-71
2023/05/17 06:17:28;;;;;;;4.85;1.63;;;15.00;42.50;;;;;;7400738;19;19978;-71
2023/05/17 06:19:54;;;;;;;4.45;1.67;;;15.10;42.60;;;;;;7404121;19;19915;-72
2023/05/17 06:22:20;;;;;;;5.05;1.50;;;15.10;42.60;;;;;;7403022;19;19918;-72
2023/05/17 06:24:47;;;;;;;4.85;1.40;;;15.10;42.50;;;;;;7404176;19;19914;-71
2023/05/17 06:27:14;;;;;;;4.07;1.33;;;15.20;42.50;;;;;;7399734;19;20235;-72
2023/05/17 06:29:40;;;;;;;;;;;15.30;42.20;;;;;;7404936;19;19929;-72
2023/05/17 06:32:06;;;;;;;4.03;1.15;;;15.40;42.10;;;;;;7397558;19;19926;-72
2023/05/17 06:34:32;;;;;;;4.55;1.80;;;15.40;42.20;;;;;;7399871;19;19929;-73
2023/05/17 06:36:58;;;;;;;3.33;0.93;;;15.50;42.20;;;;;;7400662;19;20264;-73
2023/05/17 06:39:23;;;;;;;4.15;1.40;;;15.50;42.00;;;;;;7400788;19;19922;-72
2023/05/17 06:41:49;;;;;;;8.25;2.63;;;15.60;42.50;;;;;;7401241;19;19910;-72
2023/05/17 06:44:15;;;;;;;7.10;1.60;;;15.60;41.90;;;;;;7398784;19;19944;-72
2023/05/17 06:46:41;;;;;;;6.05;2.13;;;15.80;41.70;;;;;;7379725;19;20335;-72
2023/05/17 06:49:07;;;;;;;5.20;1.48;;;15.80;41.20;;;;;;7400188;19;19934;-72
2023/05/17 06:51:32;;;;;;;7.38;1.77;;;15.90;41.00;;;;;;7400827;19;20435;-72
2023/05/17 06:53:58;;;;;;;7.55;1.67;;;16.00;41.20;;;;;;7401521;19;19957;-71
2023/05/17 06:56:24;;;;;;;4.40;1.40;;;16.10;40.70;;;;;;7400482;19;19919;-71
2023/05/17 06:58:50;;;;;;;5.82;1.63;;;16.20;40.50;;;;;;7402861;19;20259;-71
2023/05/17 07:01:16;;;;;;;7.38;1.58;;;16.40;40.90;;;;;;7397963;19;20402;-72
2023/05/17 07:03:42;;;;;;;6.40;1.60;;;16.50;40.10;;;;;;7402267;19;20302;-72
2023/05/17 07:06:08;;;;;;;6.32;1.70;;;16.50;39.90;;;;;;7400505;19;19911;-72
2023/05/17 07:08:33;;;;;;;7.07;1.30;;;16.50;40.20;;;;;;7399980;19;19948;-72
2023/05/17 07:11:00;;;;;;;5.80;1.25;;;16.60;40.20;;;;;;7400254;19;19982;-74
2023/05/17 07:13:25;;;;;;;3.75;1.45;;;16.60;40.10;;;;;;7401293;19;19918;-73
2023/05/17 07:15:51;;;;;;;4.60;1.73;;;16.60;40.40;;;;;;7402182;19;19922;-72
2023/05/17 07:18:17;;;;;;;7.53;1.40;;;16.60;40.00;;;;;;7401526;19;20255;-72
2023/05/17 07:20:42;;;;;;;4.03;1.48;;;16.70;39.70;;;;;;7371334;19;19919;-73
2023/05/17 07:23:08;;;;;;;4.97;1.17;;;16.80;39.40;;;;;;7401607;19;19932;-71
2023/05/17 07:25:37;;;;;;;4.32;1.52;;;16.90;39.10;;;;;;7402104;19;19972;-73
2023/05/17 07:28:04;;;;;;;4.13;1.25;;;17.10;39.60;;;;;;7399089;19;19986;-73
2023/05/17 07:30:29;;;;;;;;;;;17.20;39.10;;;;;;7402588;19;19914;-74
2023/05/17 07:32:55;;;;;;;5.88;1.60;;;17.30;39.70;;;;;;7402450;19;19922;-72
2023/05/17 07:35:21;;;;;;;5.80;1.60;;;17.40;39.40;;;;;;7393532;19;19918;-71
2023/05/17 07:37:48;;;;;;;4.85;1.55;;;17.50;39.40;;;;;;7402856;19;20442;-71
2023/05/17 07:40:14;;;;;;;6.80;1.63;;;17.50;39.20;;;;;;7395993;19;19922;-72
2023/05/17 07:42:40;;;;;;;4.03;1.10;;;17.50;39.60;;;;;;7398538;19;19942;-72
2023/05/17 07:45:06;;;;;;;5.20;1.42;;;17.50;39.70;;;;;;7394341;19;19970;-72
2023/05/17 07:47:32;;;;;;;4.93;1.65;;;17.60;39.80;;;;;;7397777;19;19967;-72
2023/05/17 07:49:57;;;;;;;6.88;1.95;;;17.70;40.40;;;;;;7401552;19;19915;-72
2023/05/17 07:52:23;;;;;;;6.63;2.10;;;17.70;39.80;;;;;;7397356;19;20338;-72
2023/05/17 07:54:49;;;;;;;6.50;1.85;;;17.80;39.60;;;;;;7399439;19;19975;-73
2023/05/17 07:57:15;;;;;;;4.35;1.48;;;17.80;38.80;;;;;;7396162;19;19915;-72
2023/05/17 07:59:40;;;;;;;5.45;1.60;;;17.80;39.80;;;;;;7368494;19;19991;-72
2023/05/17 08:02:06;;;;;;;5.43;1.67;;;17.90;39.90;;;;;;7398790;19;19921;-72
2023/05/17 08:04:32;;;;;;;4.93;1.25;;;18.00;39.80;;;;;;7401468;19;20997;-72
2023/05/17 08:06:59;;;;;;;4.93;1.65;;;18.00;39.80;;;;;;7400211;19;20312;-71
2023/05/17 08:09:25;;;;;;;4.78;1.33;;;18.10;39.80;;;;;;7397588;19;19929;-72
2023/05/17 08:11:51;;;;;;;6.43;1.48;;;17.90;38.50;;;;;;7399102;19;19922;-72
2023/05/17 08:14:17;;;;;;;5.57;1.50;;;18.00;39.00;;;;;;7397257;19;19919;-74
2023/05/17 08:16:46;;;;;;;7.85;1.52;;;18.10;40.20;;;;;;7399654;19;20244;-72
2023/05/17 08:19:13;;;;;;;7.47;1.50;;;18.10;44.50;;;;;;7377275;19;20602;-72
2023/05/17 08:21:41;;;;;;;3.60;1.30;;;18.20;44.40;;;;;;7367616;19;20031;-72
2023/05/17 08:24:09;;;;;;;4.13;1.35;;;18.30;44.50;;;;;;7396672;19;19922;-72
2023/05/17 08:26:35;;;;;;;5.25;1.38;;;18.30;44.10;;;;;;7395275;19;19918;-72
2023/05/17 08:29:01;;;;;;;7.07;1.40;;;18.40;42.40;;;;;;7393453;19;20302;-72
2023/05/17 08:31:28;;;;;;;4.72;1.70;;;18.40;42.40;;;;;;7397769;19;19925;-72
2023/05/17 08:33:53;;;;;;;6.32;2.22;;;18.40;43.60;;;;;;7398875;19;21235;-72
2023/05/17 08:36:20;;;;;;;6.68;1.90;;;18.40;42.20;;;;;;7391206;19;19926;-73
2023/05/17 08:38:46;;;;;;;8.35;2.33;;;20.00;41.70;;;;;;7371400;19;20412;-73
2023/05/17 08:41:13;;;;;;;6.07;1.90;;;21.60;39.40;;;;;;7389439;19;19942;-72
2023/05/17 08:43:39;;;;;;;5.82;1.88;;;22.80;37.90;;;;;;7398014;19;19917;-74
2023/05/17 08:46:05;;;;;;;5.60;1.80;;;22.70;36.40;;;;;;7398172;19;20286;-74
2023/05/17 08:48:32;;;;;;;6.30;1.48;;;23.20;36.40;;;;;;7398013;19;19938;-74
2023/05/17 08:50:58;;;;;;;5.45;1.85;;;23.10;36.50;;;;;;7398930;19;19986;-75
2023/05/17 08:53:25;;;;;;;4.40;1.60;;;23.40;35.50;;;;;;7398271;19;19921;-73
2023/05/17 08:55:56;;;;;;;4.50;1.80;;;23.10;34.20;;;;;;7377496;19;19922;-74
2023/05/17 08:58:28;;;;;;;5.05;1.92;;;22.60;33.60;;;;;;7385611;19;20035;-72
2023/05/17 09:00:55;;;;;;;4.50;2.63;;;22.70;34.20;;;;;;7391525;19;19918;-73
2023/05/17 09:03:21;;;;;;;6.97;2.17;;;23.30;33.80;;;;;;7400675;19;20272;-72
2023/05/17 09:05:56;;;;;;;5.40;2.42;;;23.30;32.10;;;;;;7400597;19;19919;-74
2023/05/17 09:08:22;;;;;;;5.70;1.88;;;23.70;32.20;;;;;;7400153;19;19915;-74
2023/05/17 09:10:51;;;;;;;7.35;2.70;;;23.70;30.80;;;;;;7402422;19;20342;-73
2023/05/17 09:13:17;;;;;;;16.70;6.85;;;24.00;30.80;;;;;;7370388;19;19939;-73
2023/05/17 09:15:46;;;;;;;6.30;1.88;;;24.00;31.00;;;;;;7400174;19;19907;-74
2023/05/17 09:18:13;;;;;;;6.43;3.92;;;24.00;31.10;;;;;;7405740;19;20272;-74
2023/05/17 09:20:40;;;;;;;4.82;2.25;;;24.30;29.80;;;;;;7398817;19;19911;-73
2023/05/17 09:23:17;;;;;;;8.02;2.28;;;24.90;29.60;;;;;;7398453;19;20351;-73
2023/05/17 09:25:47;;;;;;;6.97;2.10;;;25.60;29.30;;;;;;7404924;19;19934;-73
2023/05/17 09:28:13;;;;;;;6.35;2.08;;;25.00;29.20;;;;;;7401987;19;19921;-73
2023/05/17 09:30:40;;;;;;;5.20;2.33;;;24.20;30.00;;;;;;7405142;19;20551;-73
2023/05/17 09:33:07;;;;;;;5.55;2.10;;;24.60;29.20;;;;;;7399675;19;19978;-73
2023/05/17 09:35:35;;;;;;;9.55;3.78;;;25.50;28.80;;;;;;7403164;19;20315;-72
2023/05/17 09:38:11;;;;;;;5.82;2.33;;;24.30;28.70;;;;;;7404588;19;19922;-73
2023/05/17 09:40:42;;;;;;;5.93;2.08;;;24.30;28.60;;;;;;7402425;19;19915;-73
2023/05/17 09:43:12;;;;;;;7.50;2.38;;;25.50;29.10;;;;;;7402564;19;19922;-73
2023/05/17 09:45:38;;;;;;;7.00;2.55;;;26.00;28.30;;;;;;7405672;19;20417;-73
2023/05/17 09:48:12;;;;;;;10.18;2.70;;;26.90;27.30;;;;;;7404790;19;19911;-75
2023/05/17 09:50:46;;;;;;;6.63;2.47;;;27.60;26.60;;;;;;7398670;19;19917;-73
2023/05/17 09:53:29;;;;;;;7.38;2.53;;;26.80;25.90;;;;;;7403675;19;19927;-74
2023/05/17 09:56:00;;;;;;;5.40;2.17;;;26.80;26.00;;;;;;7404732;19;19914;-73
2023/05/17 09:58:30;;;;;;;5.03;2.55;;;27.50;26.20;;;;;;7404110;19;19949;-74
2023/05/17 10:01:02;;;;;;;7.43;2.55;;;26.20;25.50;;;;;;7404147;19;19945;-73
2023/05/17 10:03:34;;;;;;;;;;;26.30;25.00;;;;;;7368490;19;19922;-74
2023/05/17 10:06:04;;;;;;;6.10;2.60;;;24.90;25.40;;;;;;7399383;19;20002;-73
2023/05/17 10:08:31;;;;;;;6.57;2.38;;;25.50;25.00;;;;;;7395693;19;19923;-74
2023/05/17 10:11:08;;;;;;;8.70;2.22;;;24.80;25.70;;;;;;7401354;19;20387;-73
2023/05/17 10:13:53;;;;;;;8.73;2.97;;;25.40;25.90;;;;;;7399014;19;19923;-73
2023/05/17 10:16:22;;;;;;;6.47;2.22;;;25.80;25.30;;;;;;7394955;19;19926;-76
2023/05/17 10:18:48;;;;;;;7.22;3.47;;;24.90;25.50;;;;;;7389374;19;20258;-74
2023/05/17 10:21:16;;;;;;;10.60;2.80;;;24.80;25.70;;;;;;7402105;19;19931;-74
2023/05/17 10:23:43;;;;;;;6.75;2.30;;;24.60;25.50;;;;;;7401474;19;19923;-79
2023/05/17 10:26:09;;;;;;;8.27;2.60;;;24.80;26.20;;;;;;7404689;19;19914;-74
2023/05/17 10:28:37;;;;;;;6.55;3.45;;;25.40;25.60;;;;;;7403081;19;20262;-73
2023/05/17 10:31:04;;;;;;;6.95;3.10;;;25.70;27.20;;;;;;7401652;19;19930;-73
2023/05/17 10:33:32;;;;;;;7.80;2.70;;;24.50;30.00;;;;;;7402734;19;19915;-74
2023/05/17 10:35:58;;;;;;;7.95;2.47;;;24.80;28.90;;;;;;7401516;19;19922;-72
2023/05/17 10:38:26;;;;;;;7.50;2.47;;;24.30;30.00;;;;;;7401361;19;19930;-74
2023/05/17 10:40:53;;;;;;;6.90;2.35;;;23.60;30.70;;;;;;7402231;19;19938;-73
2023/05/17 10:43:20;;;;;;;16.50;2.70;;;22.90;33.60;;;;;;7398631;19;20017;-73
2023/05/17 10:45:46;;;;;;;7.13;2.50;;;23.00;34.60;;;;;;7388074;19;20343;-72
2023/05/17 10:48:15;;;;;;;6.32;2.47;;;22.50;34.80;;;;;;7394709;19;19907;-73
2023/05/17 10:50:41;;;;;;;6.93;2.50;;;22.60;35.20;;;;;;7392399;19;19907;-73
2023/05/17 10:53:10;;;;;;;7.63;2.25;;;22.50;35.10;;;;;;7394898;19;19915;-73
2023/05/17 10:55:41;;;;;;;6.35;2.15;;;22.60;36.10;;;;;;7400870;19;19911;-74
2023/05/17 10:58:10;;;;;;;8.75;3.17;;;22.10;36.90;;;;;;7379389;19;20280;-72
2023/05/17 11:00:55;;;;;;;8.90;2.20;;;21.30;38.10;;;;;;7389494;19;19914;-72
2023/05/17 11:03:28;;;;;;;9.57;2.30;;;21.80;37.20;;;;;;7394359;19;19927;-71
2023/05/17 11:06:09;;;;;;;8.30;2.17;;;21.40;38.30;;;;;;7391777;19;19918;-73
2023/05/17 11:08:35;;;;;;;5.82;3.55;;;22.50;37.60;;;;;;7384485;19;20263;-73
2023/05/17 11:11:11;;;;;;;7.82;2.45;;;22.50;36.00;;;;;;7400893;19;19915;-73
2023/05/17 11:13:50;;;;;;;5.40;2.65;;;22.40;37.00;;;;;;7355519;19;20255;-73
2023/05/17 11:16:17;;;;;;;9.43;2.58;;;22.70;36.60;;;;;;7392032;19;19923;-73
2023/05/17 11:18:53;;;;;;;6.03;2.17;;;22.20;35.00;;;;;;7388637;19;20259;-73
2023/05/17 11:21:21;;;;;;;6.88;1.85;;;22.30;34.80;;;;;;7396108;19;19958;-72
2023/05/17 11:23:53;;;;;;;5.45;2.20;;;22.50;35.10;;;;;;7400983;19;20007;-74
2023/05/17 11:26:39;;;;;;;6.32;2.03;;;23.10;34.90;;;;;;7400124;19;19921;-73
2023/05/17 11:29:11;;;;;;;6.68;1.92;;;22.70;33.40;;;;;;7398452;19;19918;-71
2023/05/17 11:31:44;;;;;;;13.05;4.55;;;22.60;34.20;;;;;;7402903;19;20224;-73
2023/05/17 11:34:10;;;;;;;8.32;2.78;;;23.10;33.80;;;;;;7398426;19;19921;-74
2023/05/17 11:36:51;;;;;;;8.13;1.90;;;23.40;34.50;;;;;;7399796;19;19919;-73
2023/05/17 11:39:23;;;;;;;5.60;3.05;;;23.20;34.50;;;;;;7399431;19;19918;-73
2023/05/17 11:41:50;;;;;;;6.60;2.13;;;23.30;34.30;;;;;;7401256;19;19943;-73
2023/05/17 11:44:24;;;;;;;6.70;2.05;;;23.40;35.00;;;;;;7398816;19;19911;-73
2023/05/17 11:46:50;;;;;;;7.57;2.42;;;22.90;35.10;;;;;;7403616;19;19918;-73
2023/05/17 11:49:17;;;;;;;10.60;2.80;;;23.00;34.50;;;;;;7398441;19;19938;-73
2023/05/17 11:51:45;;;;;;;6.20;2.05;;;23.50;33.60;;;;;;7401203;19;19936;-73
2023/05/17 11:54:14;;;;;;;10.23;2.85;;;23.00;33.50;;;;;;7391464;19;19921;-72
2023/05/17 11:56:41;;;;;;;6.10;2.60;;;23.30;32.20;;;;;;7394229;19;19938;-73
2023/05/17 11:59:06;;;;;;;6.00;2.30;;;23.00;31.20;;;;;;7385108;19;19914;-73
2023/05/17 12:01:46;;;;;;;9.13;2.47;;;23.50;31.10;;;;;;7394715;19;19926;-73
2023/05/17 12:04:11;;;;;;;7.03;2.47;;;22.90;30.50;;;;;;7399920;19;19914;-74
2023/05/17 12:06:38;;;;;;;7.78;2.45;;;23.10;31.20;;;;;;7398977;19;19911;-73
2023/05/17 12:09:09;;;;;;;5.97;2.92;;;22.60;30.40;;;;;;7396839;19;19922;-72
2023/05/17 12:11:35;;;;;;;5.75;2.42;;;23.90;29.30;;;;;;7401666;19;19923;-74
2023/05/17 12:14:01;;;;;;;6.35;2.00;;;24.60;28.70;;;;;;7403364;19;19922;-73
2023/05/17 12:16:29;;;;;;;7.70;3.00;;;24.80;27.90;;;;;;7399209;19;19925;-74
2023/05/17 12:18:57;;;;;;;6.82;2.33;;;25.00;27.70;;;;;;7399543;19;19928;-73
2023/05/17 12:21:22;;;;;;;6.50;2.60;;;25.20;27.20;;;;;;7394814;19;19947;-73
2023/05/17 12:23:50;;;;;;;7.70;2.53;;;23.30;27.60;;;;;;7402471;19;19922;-72
2023/05/17 12:26:20;;;;;;;6.93;2.65;;;23.90;27.80;;;;;;7397263;19;19910;-74
2023/05/17 12:28:56;;;;;;;6.05;2.10;;;24.10;27.90;;;;;;7400751;19;19925;-73
2023/05/17 12:31:35;;;;;;;6.60;2.40;;;24.50;27.30;;;;;;7394383;19;19955;-74
2023/05/17 12:34:03;;;;;;;4.80;2.15;;;24.60;27.10;;;;;;7404501;19;19907;-73
2023/05/17 12:36:32;;;;;;;7.50;2.67;;;25.00;26.80;;;;;;7402320;19;19926;-73
2023/05/17 12:38:58;;;;;;;4.88;2.05;;;25.00;26.70;;;;;;7405836;19;19947;-74
2023/05/17 12:41:25;;;;;;;7.15;2.50;;;24.50;28.00;;;;;;7404791;19;19914;-73
2023/05/17 12:43:51;;;;;;;5.15;2.80;;;24.60;27.60;;;;;;7405968;19;19918;-72
2023/05/17 12:46:19;;;;;;;6.68;2.30;;;24.10;28.10;;;;;;7401697;19;19914;-76
2023/05/17 12:48:46;;;;;;;7.43;2.00;;;24.50;28.40;;;;;;7406810;19;19999;-74
2023/05/17 12:51:12;;;;;;;6.75;2.38;;;24.20;29.30;;;;;;7400207;19;19923;-74